sensor_id;sensor_type;location;lat;lon;timestamp;P1;durP1;ratioP1;P2;durP2;ratioP2
16612;SDS011;8419;52.358;9.752;2024-03-08T00:02:04;16.03;;;9.63;;
16612;SDS011;8419;52.358;9.752;2024-03-08T00:04:52;14.63;;;9.77;;
16612;SDS011;8419;52.358;9.752;2024-03-08T00:07:37;16.63;;;9.90;;
16612;SDS011;8419;52.358;9.752;2024-03-08T00:10:23;18.70;;;10.20;;
16612;SDS011;8419;52.358;9.752;2024-03-08T00:13:09;18.50;;;10.60;;
16612;SDS011;8419;52.358;9.752;2024-03-08T00:15:54;21.00;;;10.20;;
16612;SDS011;8419;52.358;9.752;2024-03-08T00:18:42;17.93;;;10.10;;
16612;SDS011;8419;52.358;9.752;2024-03-08T00:21:27;17.70;;;11.07;;
16612;SDS011;8419;52.358;9.752;2024-03-08T00:24:12;17.83;;;9.73;;
16612;SDS011;8419;52.358;9.752;2024-03-08T00:26:58;19.27;;;10.77;;
16612;SDS011;8419;52.358;9.752;2024-03-08T00:29:43;21.93;;;10.63;;
16612;SDS011;8419;52.358;9.752;2024-03-08T00:32:29;21.60;;;10.87;;
16612;SDS011;8419;52.358;9.752;2024-03-08T00:35:16;16.33;;;10.90;;
16612;SDS011;8419;52.358;9.752;2024-03-08T00:38:02;18.33;;;10.17;;
16612;SDS011;8419;52.358;9.752;2024-03-08T00:40:47;18.23;;;10.37;;
16612;SDS011;8419;52.358;9.752;2024-03-08T00:43:32;16.07;;;9.23;;
16612;SDS011;8419;52.358;9.752;2024-03-08T00:46:18;17.47;;;10.37;;
16612;SDS011;8419;52.358;9.752;2024-03-08T00:49:04;17.23;;;9.80;;
16612;SDS011;8419;52.358;9.752;2024-03-08T00:51:51;18.90;;;10.80;;
16612;SDS011;8419;52.358;9.752;2024-03-08T00:54:36;16.77;;;10.60;;
16612;SDS011;8419;52.358;9.752;2024-03-08T00:57:22;14.43;;;9.47;;
16612;SDS011;8419;52.358;9.752;2024-03-08T01:00:08;19.90;;;11.03;;
16612;SDS011;8419;52.358;9.752;2024-03-08T01:02:56;20.40;;;10.83;;
16612;SDS011;8419;52.358;9.752;2024-03-08T01:05:41;19.17;;;11.40;;
16612;SDS011;8419;52.358;9.752;2024-03-08T01:08:27;21.50;;;11.37;;
16612;SDS011;8419;52.358;9.752;2024-03-08T01:11:13;18.23;;;9.47;;
16612;SDS011;8419;52.358;9.752;2024-03-08T01:13:58;20.57;;;11.90;;
16612;SDS011;8419;52.358;9.752;2024-03-08T01:16:43;21.73;;;11.57;;
16612;SDS011;8419;52.358;9.752;2024-03-08T01:19:28;16.43;;;10.07;;
16612;SDS011;8419;52.358;9.752;2024-03-08T01:22:16;21.53;;;10.77;;
16612;SDS011;8419;52.358;9.752;2024-03-08T01:25:01;18.23;;;11.17;;
16612;SDS011;8419;52.358;9.752;2024-03-08T01:27:48;20.07;;;11.50;;
16612;SDS011;8419;52.358;9.752;2024-03-08T01:30:34;18.20;;;10.67;;
16612;SDS011;8419;52.358;9.752;2024-03-08T01:33:21;20.43;;;11.60;;
16612;SDS011;8419;52.358;9.752;2024-03-08T01:36:09;17.13;;;11.07;;
16612;SDS011;8419;52.358;9.752;2024-03-08T01:38:55;19.77;;;11.70;;
16612;SDS011;8419;52.358;9.752;2024-03-08T01:41:40;18.37;;;10.63;;
16612;SDS011;8419;52.358;9.752;2024-03-08T01:44:25;22.37;;;10.70;;
16612;SDS011;8419;52.358;9.752;2024-03-08T01:47:11;20.70;;;11.77;;
16612;SDS011;8419;52.358;9.752;2024-03-08T01:49:56;19.83;;;11.07;;
16612;SDS011;8419;52.358;9.752;2024-03-08T01:52:42;20.93;;;11.47;;
16612;SDS011;8419;52.358;9.752;2024-03-08T01:55:28;18.57;;;10.73;;
16612;SDS011;8419;52.358;9.752;2024-03-08T01:58:13;19.10;;;11.17;;
16612;SDS011;8419;52.358;9.752;2024-03-08T02:00:59;17.17;;;10.87;;
16612;SDS011;8419;52.358;9.752;2024-03-08T02:03:49;19.60;;;10.60;;
16612;SDS011;8419;52.358;9.752;2024-03-08T02:06:34;19.50;;;10.33;;
16612;SDS011;8419;52.358;9.752;2024-03-08T02:09:22;17.50;;;10.80;;
16612;SDS011;8419;52.358;9.752;2024-03-08T02:12:09;18.83;;;11.73;;
16612;SDS011;8419;52.358;9.752;2024-03-08T02:14:55;20.80;;;11.93;;
16612;SDS011;8419;52.358;9.752;2024-03-08T02:17:40;18.73;;;10.90;;
16612;SDS011;8419;52.358;9.752;2024-03-08T02:20:28;22.43;;;10.97;;
16612;SDS011;8419;52.358;9.752;2024-03-08T02:23:14;19.07;;;11.07;;
16612;SDS011;8419;52.358;9.752;2024-03-08T02:25:59;18.77;;;11.00;;
16612;SDS011;8419;52.358;9.752;2024-03-08T02:28:45;18.43;;;10.97;;
16612;SDS011;8419;52.358;9.752;2024-03-08T02:31:31;18.73;;;10.80;;
16612;SDS011;8419;52.358;9.752;2024-03-08T02:34:17;19.50;;;10.73;;
16612;SDS011;8419;52.358;9.752;2024-03-08T02:37:02;20.63;;;12.10;;
16612;SDS011;8419;52.358;9.752;2024-03-08T02:39:47;25.83;;;11.53;;
16612;SDS011;8419;52.358;9.752;2024-03-08T02:42:32;19.13;;;10.93;;
16612;SDS011;8419;52.358;9.752;2024-03-08T02:45:18;17.63;;;11.10;;
16612;SDS011;8419;52.358;9.752;2024-03-08T02:48:05;21.37;;;11.73;;
16612;SDS011;8419;52.358;9.752;2024-03-08T02:50:51;21.33;;;11.27;;
16612;SDS011;8419;52.358;9.752;2024-03-08T02:53:37;19.73;;;11.43;;
16612;SDS011;8419;52.358;9.752;2024-03-08T02:56:22;22.70;;;11.53;;
16612;SDS011;8419;52.358;9.752;2024-03-08T02:59:08;21.60;;;10.90;;
16612;SDS011;8419;52.358;9.752;2024-03-08T03:01:53;24.37;;;11.80;;
16612;SDS011;8419;52.358;9.752;2024-03-08T03:04:39;18.23;;;10.83;;
16612;SDS011;8419;52.358;9.752;2024-03-08T03:07:25;20.27;;;10.63;;
16612;SDS011;8419;52.358;9.752;2024-03-08T03:10:11;21.27;;;11.37;;
16612;SDS011;8419;52.358;9.752;2024-03-08T03:12:57;22.43;;;11.50;;
16612;SDS011;8419;52.358;9.752;2024-03-08T03:15:42;20.37;;;10.57;;
16612;SDS011;8419;52.358;9.752;2024-03-08T03:18:27;18.47;;;10.87;;
16612;SDS011;8419;52.358;9.752;2024-03-08T03:21:12;22.10;;;11.60;;
16612;SDS011;8419;52.358;9.752;2024-03-08T03:23:58;21.13;;;11.13;;
16612;SDS011;8419;52.358;9.752;2024-03-08T03:26:44;20.97;;;11.30;;
16612;SDS011;8419;52.358;9.752;2024-03-08T03:29:30;18.80;;;11.13;;
16612;SDS011;8419;52.358;9.752;2024-03-08T03:32:15;15.10;;;10.07;;
16612;SDS011;8419;52.358;9.752;2024-03-08T03:35:03;23.77;;;11.20;;
16612;SDS011;8419;52.358;9.752;2024-03-08T03:37:50;20.53;;;11.17;;
16612;SDS011;8419;52.358;9.752;2024-03-08T03:40:45;20.23;;;11.93;;
16612;SDS011;8419;52.358;9.752;2024-03-08T03:43:33;23.07;;;11.67;;
16612;SDS011;8419;52.358;9.752;2024-03-08T03:46:18;18.77;;;11.20;;
16612;SDS011;8419;52.358;9.752;2024-03-08T03:49:03;19.60;;;11.13;;
16612;SDS011;8419;52.358;9.752;2024-03-08T03:51:49;20.37;;;11.93;;
16612;SDS011;8419;52.358;9.752;2024-03-08T03:54:34;19.43;;;11.20;;
16612;SDS011;8419;52.358;9.752;2024-03-08T03:57:19;20.20;;;11.57;;
16612;SDS011;8419;52.358;9.752;2024-03-08T04:00:07;19.27;;;12.07;;
16612;SDS011;8419;52.358;9.752;2024-03-08T04:02:54;20.80;;;11.73;;
16612;SDS011;8419;52.358;9.752;2024-03-08T04:05:43;23.53;;;12.27;;
16612;SDS011;8419;52.358;9.752;2024-03-08T04:08:28;18.77;;;10.77;;
16612;SDS011;8419;52.358;9.752;2024-03-08T04:11:13;20.07;;;10.97;;
16612;SDS011;8419;52.358;9.752;2024-03-08T04:14:00;23.47;;;11.17;;
16612;SDS011;8419;52.358;9.752;2024-03-08T04:16:46;17.70;;;11.03;;
16612;SDS011;8419;52.358;9.752;2024-03-08T04:19:32;20.70;;;11.13;;
16612;SDS011;8419;52.358;9.752;2024-03-08T04:22:18;20.00;;;11.00;;
16612;SDS011;8419;52.358;9.752;2024-03-08T04:25:05;21.57;;;11.97;;
16612;SDS011;8419;52.358;9.752;2024-03-08T04:27:51;19.53;;;10.97;;
16612;SDS011;8419;52.358;9.752;2024-03-08T04:30:37;23.63;;;12.33;;
16612;SDS011;8419;52.358;9.752;2024-03-08T04:33:24;23.13;;;12.03;;
16612;SDS011;8419;52.358;9.752;2024-03-08T04:36:09;22.57;;;10.90;;
16612;SDS011;8419;52.358;9.752;2024-03-08T04:38:57;20.97;;;11.67;;
16612;SDS011;8419;52.358;9.752;2024-03-08T04:41:42;20.03;;;10.93;;
16612;SDS011;8419;52.358;9.752;2024-03-08T04:44:27;21.90;;;11.13;;
16612;SDS011;8419;52.358;9.752;2024-03-08T04:47:13;18.70;;;12.13;;
16612;SDS011;8419;52.358;9.752;2024-03-08T04:49:59;21.27;;;11.27;;
16612;SDS011;8419;52.358;9.752;2024-03-08T04:52:44;18.07;;;11.63;;
16612;SDS011;8419;52.358;9.752;2024-03-08T04:55:30;24.90;;;16.77;;
16612;SDS011;8419;52.358;9.752;2024-03-08T04:58:16;22.87;;;12.93;;
16612;SDS011;8419;52.358;9.752;2024-03-08T05:01:01;26.67;;;13.93;;
16612;SDS011;8419;52.358;9.752;2024-03-08T05:03:47;23.30;;;11.17;;
16612;SDS011;8419;52.358;9.752;2024-03-08T05:06:34;19.27;;;11.33;;
16612;SDS011;8419;52.358;9.752;2024-03-08T05:09:20;19.63;;;11.57;;
16612;SDS011;8419;52.358;9.752;2024-03-08T05:12:07;22.73;;;11.90;;
16612;SDS011;8419;52.358;9.752;2024-03-08T05:14:53;23.93;;;11.63;;
16612;SDS011;8419;52.358;9.752;2024-03-08T05:17:39;21.07;;;11.60;;
16612;SDS011;8419;52.358;9.752;2024-03-08T05:20:26;22.90;;;12.60;;
16612;SDS011;8419;52.358;9.752;2024-03-08T05:23:11;22.83;;;12.10;;
16612;SDS011;8419;52.358;9.752;2024-03-08T05:25:57;20.70;;;11.87;;
16612;SDS011;8419;52.358;9.752;2024-03-08T05:28:43;21.27;;;11.97;;
16612;SDS011;8419;52.358;9.752;2024-03-08T05:31:28;19.13;;;11.63;;
16612;SDS011;8419;52.358;9.752;2024-03-08T05:34:15;21.23;;;11.87;;
16612;SDS011;8419;52.358;9.752;2024-03-08T05:37:01;21.80;;;11.97;;
16612;SDS011;8419;52.358;9.752;2024-03-08T05:39:47;22.53;;;13.20;;
16612;SDS011;8419;52.358;9.752;2024-03-08T05:42:32;25.93;;;12.80;;
16612;SDS011;8419;52.358;9.752;2024-03-08T05:45:17;23.27;;;12.60;;
16612;SDS011;8419;52.358;9.752;2024-03-08T05:48:03;22.57;;;12.73;;
16612;SDS011;8419;52.358;9.752;2024-03-08T05:50:51;23.90;;;13.20;;
16612;SDS011;8419;52.358;9.752;2024-03-08T05:53:37;22.97;;;12.77;;
16612;SDS011;8419;52.358;9.752;2024-03-08T05:56:22;24.90;;;13.03;;
16612;SDS011;8419;52.358;9.752;2024-03-08T05:59:08;22.07;;;12.57;;
16612;SDS011;8419;52.358;9.752;2024-03-08T06:01:53;18.73;;;12.73;;
16612;SDS011;8419;52.358;9.752;2024-03-08T06:04:38;20.97;;;12.10;;
16612;SDS011;8419;52.358;9.752;2024-03-08T06:07:24;26.50;;;12.80;;
16612;SDS011;8419;52.358;9.752;2024-03-08T06:10:10;24.60;;;13.10;;
16612;SDS011;8419;52.358;9.752;2024-03-08T06:12:57;23.97;;;12.97;;
16612;SDS011;8419;52.358;9.752;2024-03-08T06:15:42;21.37;;;12.90;;
16612;SDS011;8419;52.358;9.752;2024-03-08T06:18:27;21.33;;;12.57;;
16612;SDS011;8419;52.358;9.752;2024-03-08T06:21:13;26.87;;;13.67;;
16612;SDS011;8419;52.358;9.752;2024-03-08T06:24:07;25.40;;;13.87;;
16612;SDS011;8419;52.358;9.752;2024-03-08T06:27:12;25.40;;;13.47;;
16612;SDS011;8419;52.358;9.752;2024-03-08T06:29:58;24.03;;;12.87;;
16612;SDS011;8419;52.358;9.752;2024-03-08T06:32:43;25.40;;;12.97;;
16612;SDS011;8419;52.358;9.752;2024-03-08T06:35:28;24.13;;;14.03;;
16612;SDS011;8419;52.358;9.752;2024-03-08T06:38:16;26.97;;;14.60;;
16612;SDS011;8419;52.358;9.752;2024-03-08T06:41:02;23.07;;;13.83;;
16612;SDS011;8419;52.358;9.752;2024-03-08T06:43:48;25.63;;;13.67;;
16612;SDS011;8419;52.358;9.752;2024-03-08T06:46:35;28.00;;;14.90;;
16612;SDS011;8419;52.358;9.752;2024-03-08T06:49:22;23.23;;;13.03;;
16612;SDS011;8419;52.358;9.752;2024-03-08T06:52:08;24.80;;;13.80;;
16612;SDS011;8419;52.358;9.752;2024-03-08T06:54:53;24.77;;;14.47;;
16612;SDS011;8419;52.358;9.752;2024-03-08T06:57:38;22.33;;;12.73;;
16612;SDS011;8419;52.358;9.752;2024-03-08T07:00:24;29.07;;;13.60;;
16612;SDS011;8419;52.358;9.752;2024-03-08T07:03:13;23.57;;;13.20;;
16612;SDS011;8419;52.358;9.752;2024-03-08T07:06:01;26.53;;;14.07;;
16612;SDS011;8419;52.358;9.752;2024-03-08T07:08:52;23.07;;;13.73;;
16612;SDS011;8419;52.358;9.752;2024-03-08T07:11:37;23.10;;;13.63;;
16612;SDS011;8419;52.358;9.752;2024-03-08T07:14:22;27.37;;;13.43;;
16612;SDS011;8419;52.358;9.752;2024-03-08T07:17:08;28.43;;;13.40;;
16612;SDS011;8419;52.358;9.752;2024-03-08T07:19:53;24.60;;;14.10;;
16612;SDS011;8419;52.358;9.752;2024-03-08T07:22:39;28.73;;;14.47;;
16612;SDS011;8419;52.358;9.752;2024-03-08T07:25:24;26.40;;;13.40;;
16612;SDS011;8419;52.358;9.752;2024-03-08T07:28:13;24.17;;;14.53;;
16612;SDS011;8419;52.358;9.752;2024-03-08T07:30:58;24.47;;;14.27;;
16612;SDS011;8419;52.358;9.752;2024-03-08T07:33:58;27.17;;;14.13;;
16612;SDS011;8419;52.358;9.752;2024-03-08T07:36:44;27.00;;;14.53;;
16612;SDS011;8419;52.358;9.752;2024-03-08T07:39:29;22.93;;;12.97;;
16612;SDS011;8419;52.358;9.752;2024-03-08T07:42:15;23.17;;;13.80;;
16612;SDS011;8419;52.358;9.752;2024-03-08T07:45:01;26.17;;;14.30;;
16612;SDS011;8419;52.358;9.752;2024-03-08T07:47:48;22.83;;;14.03;;
16612;SDS011;8419;52.358;9.752;2024-03-08T07:50:35;20.30;;;13.03;;
16612;SDS011;8419;52.358;9.752;2024-03-08T07:53:21;23.87;;;14.07;;
16612;SDS011;8419;52.358;9.752;2024-03-08T07:56:08;22.83;;;13.80;;
16612;SDS011;8419;52.358;9.752;2024-03-08T07:58:57;23.33;;;14.03;;
16612;SDS011;8419;52.358;9.752;2024-03-08T08:01:43;25.60;;;14.37;;
16612;SDS011;8419;52.358;9.752;2024-03-08T08:04:28;23.00;;;13.53;;
16612;SDS011;8419;52.358;9.752;2024-03-08T08:07:14;21.73;;;13.00;;
16612;SDS011;8419;52.358;9.752;2024-03-08T08:09:59;23.60;;;14.40;;
16612;SDS011;8419;52.358;9.752;2024-03-08T08:12:45;26.33;;;14.60;;
16612;SDS011;8419;52.358;9.752;2024-03-08T08:15:31;21.37;;;13.07;;
16612;SDS011;8419;52.358;9.752;2024-03-08T08:18:18;22.13;;;12.97;;
16612;SDS011;8419;52.358;9.752;2024-03-08T08:21:06;20.60;;;13.13;;
16612;SDS011;8419;52.358;9.752;2024-03-08T08:23:51;24.00;;;13.27;;
16612;SDS011;8419;52.358;9.752;2024-03-08T08:26:36;23.97;;;13.57;;
16612;SDS011;8419;52.358;9.752;2024-03-08T08:29:22;20.47;;;12.97;;
16612;SDS011;8419;52.358;9.752;2024-03-08T08:32:07;25.60;;;13.70;;
16612;SDS011;8419;52.358;9.752;2024-03-08T08:34:54;22.83;;;13.57;;
16612;SDS011;8419;52.358;9.752;2024-03-08T08:37:40;26.20;;;14.67;;
16612;SDS011;8419;52.358;9.752;2024-03-08T08:40:25;22.33;;;13.80;;
16612;SDS011;8419;52.358;9.752;2024-03-08T08:43:10;25.17;;;14.23;;
16612;SDS011;8419;52.358;9.752;2024-03-08T08:45:56;23.80;;;14.13;;
16612;SDS011;8419;52.358;9.752;2024-03-08T08:48:42;26.23;;;15.03;;
16612;SDS011;8419;52.358;9.752;2024-03-08T08:51:29;24.60;;;14.60;;
16612;SDS011;8419;52.358;9.752;2024-03-08T08:54:15;23.37;;;14.57;;
16612;SDS011;8419;52.358;9.752;2024-03-08T08:57:01;22.20;;;14.33;;
16612;SDS011;8419;52.358;9.752;2024-03-08T08:59:52;22.30;;;12.87;;
16612;SDS011;8419;52.358;9.752;2024-03-08T09:02:38;26.47;;;14.17;;
16612;SDS011;8419;52.358;9.752;2024-03-08T09:05:23;20.23;;;13.33;;
16612;SDS011;8419;52.358;9.752;2024-03-08T09:08:09;23.23;;;14.47;;
16612;SDS011;8419;52.358;9.752;2024-03-08T09:10:54;33.17;;;16.00;;
16612;SDS011;8419;52.358;9.752;2024-03-08T09:13:39;23.17;;;14.07;;
16612;SDS011;8419;52.358;9.752;2024-03-08T09:16:30;23.53;;;13.97;;
16612;SDS011;8419;52.358;9.752;2024-03-08T09:19:17;21.53;;;14.33;;
16612;SDS011;8419;52.358;9.752;2024-03-08T09:22:03;22.43;;;14.27;;
16612;SDS011;8419;52.358;9.752;2024-03-08T09:24:49;24.90;;;14.80;;
16612;SDS011;8419;52.358;9.752;2024-03-08T09:27:36;24.60;;;14.50;;
16612;SDS011;8419;52.358;9.752;2024-03-08T09:30:21;23.67;;;14.48;;
16612;SDS011;8419;52.358;9.752;2024-03-08T09:33:08;21.73;;;14.60;;
16612;SDS011;8419;52.358;9.752;2024-03-08T09:35:54;24.00;;;14.90;;
16612;SDS011;8419;52.358;9.752;2024-03-08T09:38:43;28.53;;;15.40;;
16612;SDS011;8419;52.358;9.752;2024-03-08T09:41:29;24.87;;;13.90;;
16612;SDS011;8419;52.358;9.752;2024-03-08T09:44:15;24.40;;;13.70;;
16612;SDS011;8419;52.358;9.752;2024-03-08T09:47:00;23.77;;;14.40;;
16612;SDS011;8419;52.358;9.752;2024-03-08T09:49:46;22.40;;;13.68;;
16612;SDS011;8419;52.358;9.752;2024-03-08T09:52:32;20.17;;;13.50;;
16612;SDS011;8419;52.358;9.752;2024-03-08T09:55:17;24.90;;;15.27;;
16612;SDS011;8419;52.358;9.752;2024-03-08T09:58:06;22.48;;;14.05;;
16612;SDS011;8419;52.358;9.752;2024-03-08T10:01:30;24.57;;;13.77;;
16612;SDS011;8419;52.358;9.752;2024-03-08T10:04:15;25.48;;;14.43;;
16612;SDS011;8419;52.358;9.752;2024-03-08T10:07:01;25.58;;;13.93;;
16612;SDS011;8419;52.358;9.752;2024-03-08T10:09:47;22.67;;;14.05;;
16612;SDS011;8419;52.358;9.752;2024-03-08T10:12:34;23.48;;;14.20;;
16612;SDS011;8419;52.358;9.752;2024-03-08T10:15:20;22.55;;;13.62;;
16612;SDS011;8419;52.358;9.752;2024-03-08T10:18:06;22.37;;;13.30;;
16612;SDS011;8419;52.358;9.752;2024-03-08T10:21:05;22.75;;;14.85;;
16612;SDS011;8419;52.358;9.752;2024-03-08T10:23:54;19.08;;;13.07;;
16612;SDS011;8419;52.358;9.752;2024-03-08T10:26:41;22.95;;;14.85;;
16612;SDS011;8419;52.358;9.752;2024-03-08T10:29:27;22.15;;;13.80;;
16612;SDS011;8419;52.358;9.752;2024-03-08T10:32:13;22.45;;;13.68;;
16612;SDS011;8419;52.358;9.752;2024-03-08T10:34:59;23.23;;;14.68;;
16612;SDS011;8419;52.358;9.752;2024-03-08T10:37:47;20.20;;;13.75;;
16612;SDS011;8419;52.358;9.752;2024-03-08T10:40:34;22.52;;;13.00;;
16612;SDS011;8419;52.358;9.752;2024-03-08T10:43:24;24.80;;;15.07;;
16612;SDS011;8419;52.358;9.752;2024-03-08T10:46:15;19.10;;;13.75;;
16612;SDS011;8419;52.358;9.752;2024-03-08T10:49:12;24.30;;;14.65;;
16612;SDS011;8419;52.358;9.752;2024-03-08T10:52:03;22.67;;;14.00;;
16612;SDS011;8419;52.358;9.752;2024-03-08T10:54:53;21.23;;;13.85;;
16612;SDS011;8419;52.358;9.752;2024-03-08T10:57:42;22.83;;;13.68;;
16612;SDS011;8419;52.358;9.752;2024-03-08T11:00:28;22.73;;;14.40;;
16612;SDS011;8419;52.358;9.752;2024-03-08T11:06:30;18.12;;;12.23;;
16612;SDS011;8419;52.358;9.752;2024-03-08T11:09:29;24.70;;;15.20;;
16612;SDS011;8419;52.358;9.752;2024-03-08T11:12:23;23.45;;;14.27;;
16612;SDS011;8419;52.358;9.752;2024-03-08T11:15:10;20.52;;;13.55;;
16612;SDS011;8419;52.358;9.752;2024-03-08T11:17:58;23.27;;;13.90;;
16612;SDS011;8419;52.358;9.752;2024-03-08T11:20:46;18.17;;;12.50;;
16612;SDS011;8419;52.358;9.752;2024-03-08T11:23:33;22.15;;;13.45;;
16612;SDS011;8419;52.358;9.752;2024-03-08T11:26:20;21.50;;;12.88;;
16612;SDS011;8419;52.358;9.752;2024-03-08T11:32:20;18.45;;;12.95;;
16612;SDS011;8419;52.358;9.752;2024-03-08T11:35:07;23.92;;;13.02;;
16612;SDS011;8419;52.358;9.752;2024-03-08T11:38:02;23.23;;;13.60;;
16612;SDS011;8419;52.358;9.752;2024-03-08T11:40:48;19.48;;;12.98;;
16612;SDS011;8419;52.358;9.752;2024-03-08T11:43:35;22.60;;;13.57;;
16612;SDS011;8419;52.358;9.752;2024-03-08T11:46:21;20.42;;;12.95;;
16612;SDS011;8419;52.358;9.752;2024-03-08T11:49:09;19.83;;;13.05;;
16612;SDS011;8419;52.358;9.752;2024-03-08T11:51:56;21.77;;;13.57;;
16612;SDS011;8419;52.358;9.752;2024-03-08T11:54:42;22.13;;;13.38;;
16612;SDS011;8419;52.358;9.752;2024-03-08T11:57:34;22.02;;;13.60;;
16612;SDS011;8419;52.358;9.752;2024-03-08T12:00:20;20.08;;;12.50;;
16612;SDS011;8419;52.358;9.752;2024-03-08T12:03:09;20.12;;;12.37;;
16612;SDS011;8419;52.358;9.752;2024-03-08T12:05:57;20.55;;;12.82;;
16612;SDS011;8419;52.358;9.752;2024-03-08T12:08:43;21.45;;;12.88;;
16612;SDS011;8419;52.358;9.752;2024-03-08T12:11:33;21.23;;;13.93;;
16612;SDS011;8419;52.358;9.752;2024-03-08T12:14:20;21.40;;;13.68;;
16612;SDS011;8419;52.358;9.752;2024-03-08T12:17:06;20.23;;;12.07;;
16612;SDS011;8419;52.358;9.752;2024-03-08T12:19:54;17.30;;;11.98;;
16612;SDS011;8419;52.358;9.752;2024-03-08T12:22:41;15.55;;;11.70;;
16612;SDS011;8419;52.358;9.752;2024-03-08T12:25:27;17.92;;;11.80;;
16612;SDS011;8419;52.358;9.752;2024-03-08T12:28:16;15.30;;;9.70;;
16612;SDS011;8419;52.358;9.752;2024-03-08T12:31:03;18.35;;;11.20;;
16612;SDS011;8419;52.358;9.752;2024-03-08T12:33:54;19.08;;;12.32;;
16612;SDS011;8419;52.358;9.752;2024-03-08T12:36:44;17.52;;;11.90;;
16612;SDS011;8419;52.358;9.752;2024-03-08T12:39:31;16.42;;;11.60;;
16612;SDS011;8419;52.358;9.752;2024-03-08T12:42:17;14.87;;;10.23;;
16612;SDS011;8419;52.358;9.752;2024-03-08T12:45:04;18.48;;;10.43;;
16612;SDS011;8419;52.358;9.752;2024-03-08T12:47:54;17.00;;;11.32;;
16612;SDS011;8419;52.358;9.752;2024-03-08T12:50:40;15.23;;;10.35;;
16612;SDS011;8419;52.358;9.752;2024-03-08T12:53:28;15.43;;;11.52;;
16612;SDS011;8419;52.358;9.752;2024-03-08T12:56:14;15.77;;;10.95;;
16612;SDS011;8419;52.358;9.752;2024-03-08T12:59:12;17.80;;;11.00;;
16612;SDS011;8419;52.358;9.752;2024-03-08T13:01:58;14.87;;;10.57;;
16612;SDS011;8419;52.358;9.752;2024-03-08T13:04:44;15.30;;;10.57;;
16612;SDS011;8419;52.358;9.752;2024-03-08T13:07:29;17.48;;;10.95;;
16612;SDS011;8419;52.358;9.752;2024-03-08T13:10:16;16.87;;;12.05;;
16612;SDS011;8419;52.358;9.752;2024-03-08T13:13:02;17.62;;;12.23;;
16612;SDS011;8419;52.358;9.752;2024-03-08T13:15:49;17.25;;;12.18;;
16612;SDS011;8419;52.358;9.752;2024-03-08T13:18:35;22.10;;;14.10;;
16612;SDS011;8419;52.358;9.752;2024-03-08T13:21:21;22.05;;;13.80;;
16612;SDS011;8419;52.358;9.752;2024-03-08T13:24:08;18.90;;;12.75;;
16612;SDS011;8419;52.358;9.752;2024-03-08T13:26:55;17.08;;;11.98;;
16612;SDS011;8419;52.358;9.752;2024-03-08T13:29:42;19.52;;;13.27;;
16612;SDS011;8419;52.358;9.752;2024-03-08T13:32:27;16.37;;;11.77;;
16612;SDS011;8419;52.358;9.752;2024-03-08T13:35:15;16.98;;;12.63;;
16612;SDS011;8419;52.358;9.752;2024-03-08T13:38:00;16.25;;;12.40;;
16612;SDS011;8419;52.358;9.752;2024-03-08T13:40:47;16.52;;;12.13;;
16612;SDS011;8419;52.358;9.752;2024-03-08T13:43:33;16.58;;;11.45;;
16612;SDS011;8419;52.358;9.752;2024-03-08T13:46:20;19.42;;;12.70;;
16612;SDS011;8419;52.358;9.752;2024-03-08T13:49:06;16.37;;;11.40;;
16612;SDS011;8419;52.358;9.752;2024-03-08T13:51:53;18.12;;;12.93;;
16612;SDS011;8419;52.358;9.752;2024-03-08T13:54:38;17.83;;;12.40;;
16612;SDS011;8419;52.358;9.752;2024-03-08T13:57:27;15.88;;;12.30;;
16612;SDS011;8419;52.358;9.752;2024-03-08T14:00:13;17.50;;;12.35;;
16612;SDS011;8419;52.358;9.752;2024-03-08T14:02:59;15.98;;;12.30;;
16612;SDS011;8419;52.358;9.752;2024-03-08T14:05:45;17.75;;;12.45;;
16612;SDS011;8419;52.358;9.752;2024-03-08T14:08:31;18.87;;;12.88;;
16612;SDS011;8419;52.358;9.752;2024-03-08T14:11:17;20.33;;;12.07;;
16612;SDS011;8419;52.358;9.752;2024-03-08T14:14:03;20.50;;;12.20;;
16612;SDS011;8419;52.358;9.752;2024-03-08T14:16:49;16.55;;;12.35;;
16612;SDS011;8419;52.358;9.752;2024-03-08T14:19:37;16.15;;;10.77;;
16612;SDS011;8419;52.358;9.752;2024-03-08T14:22:23;15.57;;;11.15;;
16612;SDS011;8419;52.358;9.752;2024-03-08T14:25:09;17.58;;;11.70;;
16612;SDS011;8419;52.358;9.752;2024-03-08T14:28:01;15.02;;;10.95;;
16612;SDS011;8419;52.358;9.752;2024-03-08T14:30:51;16.35;;;10.70;;
16612;SDS011;8419;52.358;9.752;2024-03-08T14:33:37;13.43;;;9.45;;
16612;SDS011;8419;52.358;9.752;2024-03-08T14:36:22;15.85;;;10.38;;
16612;SDS011;8419;52.358;9.752;2024-03-08T14:39:09;14.50;;;10.02;;
16612;SDS011;8419;52.358;9.752;2024-03-08T14:41:55;15.55;;;10.35;;
16612;SDS011;8419;52.358;9.752;2024-03-08T14:44:44;14.63;;;10.52;;
16612;SDS011;8419;52.358;9.752;2024-03-08T14:47:35;14.98;;;10.13;;
16612;SDS011;8419;52.358;9.752;2024-03-08T14:50:22;14.27;;;9.90;;
16612;SDS011;8419;52.358;9.752;2024-03-08T14:53:08;14.68;;;10.32;;
16612;SDS011;8419;52.358;9.752;2024-03-08T14:55:53;17.12;;;10.90;;
16612;SDS011;8419;52.358;9.752;2024-03-08T14:58:39;15.15;;;10.77;;
16612;SDS011;8419;52.358;9.752;2024-03-08T15:01:24;14.75;;;10.48;;
16612;SDS011;8419;52.358;9.752;2024-03-08T15:04:13;17.48;;;10.65;;
16612;SDS011;8419;52.358;9.752;2024-03-08T15:06:59;13.98;;;10.15;;
16612;SDS011;8419;52.358;9.752;2024-03-08T15:09:46;15.77;;;10.82;;
16612;SDS011;8419;52.358;9.752;2024-03-08T15:12:31;15.60;;;10.77;;
16612;SDS011;8419;52.358;9.752;2024-03-08T15:15:17;16.30;;;11.52;;
16612;SDS011;8419;52.358;9.752;2024-03-08T15:18:03;16.10;;;10.75;;
16612;SDS011;8419;52.358;9.752;2024-03-08T15:20:52;15.73;;;11.23;;
16612;SDS011;8419;52.358;9.752;2024-03-08T15:23:39;17.48;;;11.40;;
16612;SDS011;8419;52.358;9.752;2024-03-08T15:26:30;14.40;;;10.73;;
16612;SDS011;8419;52.358;9.752;2024-03-08T15:29:15;15.65;;;11.05;;
16612;SDS011;8419;52.358;9.752;2024-03-08T15:32:07;16.20;;;10.85;;
16612;SDS011;8419;52.358;9.752;2024-03-08T15:34:56;17.23;;;11.12;;
16612;SDS011;8419;52.358;9.752;2024-03-08T15:37:42;20.20;;;11.75;;
16612;SDS011;8419;52.358;9.752;2024-03-08T15:40:29;14.85;;;10.82;;
16612;SDS011;8419;52.358;9.752;2024-03-08T15:43:15;17.10;;;11.90;;
16612;SDS011;8419;52.358;9.752;2024-03-08T15:46:01;14.93;;;11.18;;
16612;SDS011;8419;52.358;9.752;2024-03-08T15:48:48;18.17;;;11.82;;
16612;SDS011;8419;52.358;9.752;2024-03-08T15:51:35;15.90;;;11.05;;
16612;SDS011;8419;52.358;9.752;2024-03-08T15:54:22;16.27;;;11.27;;
16612;SDS011;8419;52.358;9.752;2024-03-08T15:57:08;12.95;;;10.70;;
16612;SDS011;8419;52.358;9.752;2024-03-08T15:59:58;16.85;;;11.73;;
16612;SDS011;8419;52.358;9.752;2024-03-08T16:02:44;16.77;;;12.23;;
16612;SDS011;8419;52.358;9.752;2024-03-08T16:05:30;18.15;;;11.05;;
16612;SDS011;8419;52.358;9.752;2024-03-08T16:08:15;17.02;;;12.13;;
16612;SDS011;8419;52.358;9.752;2024-03-08T16:11:02;19.67;;;12.25;;
16612;SDS011;8419;52.358;9.752;2024-03-08T16:13:49;16.95;;;12.20;;
16612;SDS011;8419;52.358;9.752;2024-03-08T16:16:35;15.63;;;11.07;;
16612;SDS011;8419;52.358;9.752;2024-03-08T16:19:21;16.25;;;11.30;;
16612;SDS011;8419;52.358;9.752;2024-03-08T16:22:13;16.55;;;11.30;;
16612;SDS011;8419;52.358;9.752;2024-03-08T16:24:58;16.15;;;10.80;;
16612;SDS011;8419;52.358;9.752;2024-03-08T16:27:44;16.23;;;11.43;;
16612;SDS011;8419;52.358;9.752;2024-03-08T16:30:31;15.00;;;10.23;;
16612;SDS011;8419;52.358;9.752;2024-03-08T16:33:18;16.50;;;12.02;;
16612;SDS011;8419;52.358;9.752;2024-03-08T16:36:04;18.40;;;11.90;;
16612;SDS011;8419;52.358;9.752;2024-03-08T16:38:49;18.45;;;11.75;;